Time;durP1;ratioP1;P1;durP2;ratioP2;P2;SDS_P1;SDS_P2;PMS_P1;PMS_P2;Temp;Humidity;BMP_temperature;BMP_pressure;BME280_temperature;BME280_humidity;BME280_pressure;Samples;Min_cycle;Max_cycle;Signal;HPM_P1;HPM_P2
2024/04/17 00:01:35;;;;;;;0.30;0.00;;;;;;;5.39;100.00;99628.78;5406275;26;20016;-70
2024/04/17 00:04:00;;;;;;;0.15;0.00;;;;;;;5.39;100.00;99621.03;5407261;26;20093;-70
2024/04/17 00:06:26;;;;;;;0.20;0.03;;;;;;;5.32;100.00;99622.50;5408661;26;20027;-70
2024/04/17 00:08:51;;;;;;;4.05;0.00;;;;;;;5.26;100.00;99623.03;5409357;26;20016;-70
2024/04/17 00:11:16;;;;;;;0.20;0.00;;;;;;;5.22;100.00;99619.06;5406777;26;20470;-70
2024/04/17 00:13:42;;;;;;;0.10;0.00;;;;;;;5.11;100.00;99608.84;5403444;26;20011;-70
2024/04/17 00:16:07;;;;;;;0.28;0.00;;;;;;;5.09;100.00;99616.72;5404950;26;20038;-70
2024/04/17 00:18:33;;;;;;;0.10;0.03;;;;;;;5.02;100.00;99607.88;5409027;26;20030;-70
2024/04/17 00:20:59;;;;;;;0.00;0.00;;;;;;;5.00;100.00;99591.69;5400840;26;20011;-70
2024/04/17 00:23:25;;;;;;;2.67;0.10;;;;;;;4.94;100.00;99598.19;5406796;26;20061;-70
2024/04/17 00:25:51;;;;;;;0.20;0.00;;;;;;;4.75;100.00;99603.25;5408711;26;20018;-70
2024/04/17 00:28:16;;;;;;;0.00;0.00;;;;;;;4.97;100.00;99605.66;5407419;26;20003;-70
2024/04/17 00:30:41;;;;;;;0.00;0.00;;;;;;;5.11;100.00;99593.38;5409346;26;20084;-70
2024/04/17 00:33:07;;;;;;;0.77;0.00;;;;;;;5.20;100.00;99587.41;5408909;26;20016;-70
2024/04/17 00:35:32;;;;;;;0.00;0.00;;;;;;;5.17;100.00;99582.50;5404370;26;20004;-71
2024/04/17 00:37:58;;;;;;;0.17;0.00;;;;;;;5.10;100.00;99589.97;5409698;26;20040;-71
2024/04/17 00:40:23;;;;;;;0.00;0.00;;;;;;;5.07;100.00;99589.41;5398945;26;20012;-69
2024/04/17 00:42:49;;;;;;;0.25;0.00;;;;;;;4.99;100.00;99595.22;5399045;26;20144;-70
2024/04/17 00:45:15;;;;;;;0.10;0.00;;;;;;;5.01;100.00;99590.75;5409558;26;20018;-70
2024/04/17 00:47:41;;;;;;;2.40;0.00;;;;;;;4.98;100.00;99580.66;5400999;26;20007;-70
2024/04/17 00:50:08;;;;;;;0.43;0.00;;;;;;;4.93;100.00;99582.81;5411293;26;20105;-70
2024/04/17 00:52:35;;;;;;;1.05;0.00;;;;;;;4.93;100.00;99582.81;5407688;26;20092;-70
2024/04/17 00:55:02;;;;;;;0.10;0.00;;;;;;;4.96;100.00;99580.81;5407726;26;20003;-70
2024/04/17 00:57:29;;;;;;;0.00;0.00;;;;;;;4.97;100.00;99573.88;5405424;26;20460;-70
2024/04/17 00:59:55;;;;;;;0.10;0.00;;;;;;;4.96;100.00;99567.06;5403064;26;20026;-70
2024/04/17 01:02:20;;;;;;;2.40;0.20;;;;;;;4.94;100.00;99567.22;5388525;26;20023;-70
2024/04/17 01:04:46;;;;;;;0.00;0.00;;;;;;;4.92;100.00;99571.69;5413418;26;20023;-70
2024/04/17 01:07:12;;;;;;;0.20;0.00;;;;;;;4.88;100.00;99567.72;5403933;26;20067;-70
2024/04/17 01:09:37;;;;;;;0.28;0.00;;;;;;;4.86;100.00;99558.47;5417338;26;20007;-70
2024/04/17 01:12:05;;;;;;;0.20;0.00;;;;;;;4.82;100.00;99560.50;5403260;26;20018;-70
2024/04/17 01:14:30;;;;;;;0.30;0.22;;;;;;;4.71;100.00;99559.78;5400322;26;20409;-70
2024/04/17 01:16:56;;;;;;;0.00;0.00;;;;;;;4.66;100.00;99562.75;5402076;26;20074;-70
2024/04/17 01:19:22;;;;;;;0.13;0.00;;;;;;;4.69;100.00;99562.50;5394566;26;20018;-70
2024/04/17 01:21:47;;;;;;;0.38;0.00;;;;;;;4.69;100.00;99565.09;5403980;26;20019;-70
2024/04/17 01:24:13;;;;;;;0.10;0.00;;;;;;;4.68;100.00;99552.31;5410354;26;20020;-70
2024/04/17 01:26:38;;;;;;;0.00;0.00;;;;;;;4.68;100.00;99554.88;5405704;26;20084;-70
2024/04/17 01:29:04;;;;;;;0.65;0.00;;;;;;;4.69;100.00;99551.38;5405949;26;20007;-70
2024/04/17 01:31:29;;;;;;;0.00;0.00;;;;;;;4.70;100.00;99542.69;5400793;26;20011;-70
2024/04/17 01:33:54;;;;;;;0.10;0.00;;;;;;;4.70;100.00;99542.69;5406194;26;20090;-70
2024/04/17 01:36:20;;;;;;;0.10;0.00;;;;;;;4.55;100.00;99539.63;5402147;26;20451;-70
2024/04/17 01:38:45;;;;;;;1.88;0.10;;;;;;;4.55;100.00;99544.78;5402640;26;20003;-70
2024/04/17 01:41:11;;;;;;;2.17;0.05;;;;;;;4.37;100.00;99538.56;5402994;26;20669;-70
2024/04/17 01:43:36;;;;;;;0.68;0.00;;;;;;;4.40;100.00;99535.72;5399728;26;20026;-70
2024/04/17 01:46:02;;;;;;;0.60;0.10;;;;;;;4.48;100.00;99538.50;5399834;26;20354;-70
2024/04/17 01:48:27;;;;;;;0.20;0.00;;;;;;;4.49;100.00;99547.84;5410508;26;20160;-70
2024/04/17 01:50:53;;;;;;;0.35;0.00;;;;;;;4.42;100.00;99549.31;5406618;26;20466;-70
2024/04/17 01:53:18;;;;;;;1.48;0.08;;;;;;;4.43;100.00;99550.94;5400245;26;20019;-70
2024/04/17 01:55:44;;;;;;;0.20;0.00;;;;;;;4.44;100.00;99548.25;5396792;26;20052;-70
2024/04/17 01:58:09;;;;;;;1.27;0.00;;;;;;;4.50;100.00;99549.50;5405315;26;20025;-70
2024/04/17 02:00:36;;;;;;;0.10;0.00;;;;;;;4.42;100.00;99552.72;5393224;26;20084;-70
2024/04/17 02:03:02;;;;;;;0.10;0.00;;;;;;;4.36;100.00;99552.41;5395291;26;20008;-70
2024/04/17 02:05:27;;;;;;;0.00;0.00;;;;;;;4.37;100.00;99546.28;5410769;26;20008;-70
2024/04/17 02:07:53;;;;;;;0.45;0.10;;;;;;;4.38;100.00;99556.47;5395135;26;20381;-70
2024/04/17 02:10:18;;;;;;;0.05;0.00;;;;;;;4.38;100.00;99555.66;5401373;26;20094;-70
2024/04/17 02:12:44;;;;;;;0.10;0.00;;;;;;;4.31;100.00;99558.75;5418243;26;20015;-70
2024/04/17 02:15:09;;;;;;;0.17;0.00;;;;;;;4.31;100.00;99561.31;5413112;26;20019;-70
2024/04/17 02:17:34;;;;;;;0.20;0.00;;;;;;;4.27;100.00;99551.38;5410189;26;20004;-70
2024/04/17 02:20:00;;;;;;;0.13;0.03;;;;;;;4.20;100.00;99555.44;5403458;26;20058;-70
2024/04/17 02:22:25;;;;;;;0.13;0.00;;;;;;;4.14;100.00;99556.75;5422260;26;20839;-70
2024/04/17 02:24:51;;;;;;;1.25;0.00;;;;;;;4.08;100.00;99557.25;5417131;26;20018;-70
2024/04/17 02:27:16;;;;;;;0.17;0.00;;;;;;;4.11;100.00;99562.16;5401294;26;20008;-70
2024/04/17 02:29:41;;;;;;;0.20;0.00;;;;;;;4.15;100.00;99553.25;5409597;26;20070;-70
2024/04/17 02:32:07;;;;;;;0.30;0.00;;;;;;;4.17;100.00;99556.50;5420506;26;20133;-70
2024/04/17 02:34:33;;;;;;;0.00;0.00;;;;;;;4.18;100.00;99558.16;5408458;26;20030;-70
2024/04/17 02:36:58;;;;;;;0.15;0.00;;;;;;;4.19;100.00;99564.13;5413426;26;20003;-70
2024/04/17 02:39:23;;;;;;;1.95;0.00;;;;;;;4.20;100.00;99558.84;5412696;26;20007;-70
2024/04/17 02:41:49;;;;;;;0.10;0.00;;;;;;;4.22;100.00;99551.81;5401642;26;20617;-70
2024/04/17 02:44:14;;;;;;;0.22;0.00;;;;;;;4.15;100.00;99550.66;5401281;26;20061;-70
2024/04/17 02:46:40;;;;;;;0.13;0.03;;;;;;;4.13;100.00;99560.28;5394156;26;20011;-70
2024/04/17 02:49:05;;;;;;;0.15;0.00;;;;;;;4.09;100.00;99550.34;5391010;26;20080;-70
2024/04/17 02:51:31;;;;;;;1.73;0.00;;;;;;;4.13;100.00;99555.13;5396211;26;20018;-70
2024/04/17 02:53:56;;;;;;;5.40;0.10;;;;;;;4.16;100.00;99554.06;5402797;26;20019;-70
2024/04/17 02:56:21;;;;;;;0.05;0.00;;;;;;;4.17;100.00;99545.38;5409088;26;20019;-70
2024/04/17 02:58:47;;;;;;;0.10;0.00;;;;;;;4.15;100.00;99542.09;5407720;26;20119;-70
2024/04/17 03:01:14;;;;;;;2.58;0.00;;;;;;;4.07;100.00;99539.34;5407654;26;20035;-70
2024/04/17 03:03:39;;;;;;;0.20;0.00;;;;;;;4.00;100.00;99537.25;5405676;26;20372;-70
2024/04/17 03:06:05;;;;;;;0.25;0.00;;;;;;;4.00;100.00;99549.31;5402384;26;20138;-70
2024/04/17 03:08:31;;;;;;;0.32;0.00;;;;;;;4.01;100.00;99540.66;5398376;26;20023;-70
2024/04/17 03:11:03;;;;;;;2.35;0.03;;;;;;;3.97;100.00;99550.41;5406733;26;20015;-70
2024/04/17 03:13:29;;;;;;;0.75;0.10;;;;;;;3.98;100.00;99546.06;5404145;26;20008;-70
2024/04/17 03:15:54;;;;;;;0.10;0.00;;;;;;;4.02;100.00;99547.44;5400173;26;20392;-70
2024/04/17 03:18:20;;;;;;;0.13;0.00;;;;;;;4.01;100.00;99550.97;5409379;26;20026;-70
2024/04/17 03:20:46;;;;;;;0.10;0.00;;;;;;;3.96;100.00;99553.91;5399725;26;20015;-70
2024/04/17 03:23:11;;;;;;;0.10;0.00;;;;;;;3.91;100.00;99550.88;5405368;26;20023;-70
2024/04/17 03:25:37;;;;;;;0.10;0.00;;;;;;;3.90;100.00;99545.84;5410336;26;20435;-70
2024/04/17 03:28:02;;;;;;;0.60;0.05;;;;;;;3.91;100.00;99550.88;5408538;26;20003;-70
2024/04/17 03:30:28;;;;;;;0.32;0.05;;;;;;;3.90;100.00;99554.41;5403172;26;20719;-71
2024/04/17 03:32:53;;;;;;;0.10;0.00;;;;;;;3.86;100.00;99557.34;5408471;26;20004;-70
2024/04/17 03:35:19;;;;;;;0.20;0.03;;;;;;;3.88;100.00;99555.47;5407490;26;20008;-70
2024/04/17 03:37:44;;;;;;;0.20;0.10;;;;;;;3.82;100.00;99554.22;5414004;26;20087;-70
2024/04/17 03:40:10;;;;;;;0.20;0.10;;;;;;;3.81;100.00;99550.00;5408767;26;20007;-70
2024/04/17 03:42:36;;;;;;;0.20;0.00;;;;;;;3.76;100.00;99541.84;5398477;26;20431;-70
2024/04/17 03:45:01;;;;;;;0.73;0.10;;;;;;;3.72;100.00;99548.19;5413119;26;20022;-70
2024/04/17 03:47:27;;;;;;;0.00;0.00;;;;;;;3.75;100.00;99540.22;5408488;26;20086;-70
2024/04/17 03:49:53;;;;;;;0.43;0.30;;;;;;;3.83;100.00;99547.28;5412963;26;20007;-70
2024/04/17 03:52:19;;;;;;;0.52;0.10;;;;;;;3.84;100.00;99552.31;5406938;26;20018;-70
2024/04/17 03:54:44;;;;;;;0.30;0.00;;;;;;;3.82;100.00;99550.81;5413220;26;20006;-70
2024/04/17 03:57:10;;;;;;;0.17;0.00;;;;;;;3.81;100.00;99546.59;5404416;26;20022;-70
2024/04/17 03:59:35;;;;;;;0.28;0.10;;;;;;;3.78;100.00;99552.03;5410491;26;20148;-70
2024/04/17 04:02:05;;;;;;;0.55;0.10;;;;;;;3.72;100.00;99549.94;5398675;26;20443;-70
2024/04/17 04:04:31;;;;;;;0.22;0.00;;;;;;;3.65;100.00;99565.06;5398124;26;20023;-70
2024/04/17 04:06:57;;;;;;;0.00;0.00;;;;;;;3.60;100.00;99567.19;5410263;26;20042;-70
2024/04/17 04:09:23;;;;;;;0.20;0.00;;;;;;;3.59;100.00;99566.38;5393517;26;20022;-70
2024/04/17 04:11:49;;;;;;;1.40;0.10;;;;;;;3.62;100.00;99567.88;5408159;26;20003;-70
2024/04/17 04:14:14;;;;;;;0.10;0.00;;;;;;;3.65;100.00;99572.78;5393994;26;20007;-70
2024/04/17 04:16:40;;;;;;;0.10;0.00;;;;;;;3.69;100.00;99570.78;5396779;26;20043;-70
2024/04/17 04:19:05;;;;;;;0.22;0.10;;;;;;;3.70;100.00;99572.44;5409968;26;20007;-70
2024/04/17 04:21:31;;;;;;;0.17;0.05;;;;;;;3.67;100.00;99574.31;5408516;26;20467;-70
2024/04/17 04:23:56;;;;;;;1.65;0.00;;;;;;;3.69;100.00;99573.38;5409566;26;20454;-69
2024/04/17 04:26:21;;;;;;;3.60;0.10;;;;;;;3.58;100.00;99577.59;5401052;26;20034;-70
2024/04/17 04:28:47;;;;;;;3.60;0.30;;;;;;;3.49;100.00;99575.75;5402277;26;20019;-69
2024/04/17 04:31:13;;;;;;;0.65;0.20;;;;;;;3.49;100.00;99580.91;5404204;26;20019;-70
2024/04/17 04:33:39;;;;;;;2.55;0.10;;;;;;;3.47;100.00;99584.53;5403504;26;20344;-70
2024/04/17 04:36:05;;;;;;;1.45;0.15;;;;;;;3.49;100.00;99580.91;5409186;26;20026;-70
2024/04/17 04:38:30;;;;;;;1.10;0.20;;;;;;;3.52;100.00;99572.94;5409771;26;20019;-70
2024/04/17 04:40:56;;;;;;;0.40;0.03;;;;;;;3.64;100.00;99579.69;5403848;26;20364;-70
2024/04/17 04:43:21;;;;;;;0.28;0.03;;;;;;;3.82;100.00;99581.72;5407696;26;20007;-69
2024/04/17 04:45:47;;;;;;;1.17;0.10;;;;;;;3.93;100.00;99584.28;5402201;26;20022;-70
2024/04/17 04:48:12;;;;;;;0.50;0.10;;;;;;;3.85;100.00;99576.34;5409082;26;20018;-69
2024/04/17 04:50:38;;;;;;;1.80;0.10;;;;;;;4.05;100.00;99572.97;5408443;26;20015;-71
2024/04/17 04:53:03;;;;;;;1.23;0.10;;;;;;;4.38;100.00;99571.97;5410997;26;20052;-70
2024/04/17 04:55:28;;;;;;;1.77;0.10;;;;;;;4.57;99.98;99571.25;5409436;26;20080;-69
2024/04/17 04:57:54;;;;;;;0.40;0.05;;;;;;;4.66;99.90;99568.72;5398239;26;20016;-70
2024/04/17 05:00:19;;;;;;;0.82;0.10;;;;;;;4.77;99.13;99574.72;5386201;26;20518;-70
2024/04/17 05:02:45;;;;;;;1.05;0.00;;;;;;;4.81;99.81;99576.09;5418899;26;20460;-70
2024/04/17 05:05:10;;;;;;;0.57;0.08;;;;;;;4.78;100.00;99576.38;5414099;26;20008;-70
2024/04/17 05:07:36;;;;;;;0.28;0.28;;;;;;;4.74;97.74;99572.41;5404625;26;20022;-70
2024/04/17 05:10:02;;;;;;;5.03;0.10;;;;;;;4.76;98.63;99571.34;5413504;26;20002;-71
2024/04/17 05:12:27;;;;;;;2.60;0.10;;;;;;;4.78;98.60;99572.03;5403758;26;20358;-70
2024/04/17 05:14:52;;;;;;;1.27;0.10;;;;;;;4.75;97.62;99574.03;5406155;26;20016;-69
2024/04/17 05:17:18;;;;;;;0.43;0.10;;;;;;;4.76;99.50;99579.06;5404357;26;20114;-71
2024/04/17 05:19:43;;;;;;;0.63;0.10;;;;;;;4.75;99.23;99581.78;5407187;26;20416;-71
2024/04/17 05:22:09;;;;;;;0.82;0.10;;;;;;;4.69;100.00;99577.97;5405168;26;20019;-70
2024/04/17 05:24:34;;;;;;;0.30;0.10;;;;;;;4.69;100.00;99582.31;5402122;26;20012;-71
2024/04/17 05:27:00;;;;;;;0.28;0.00;;;;;;;4.84;100.00;99581.84;5404539;26;20007;-70
2024/04/17 05:29:25;;;;;;;2.03;0.10;;;;;;;4.99;99.96;99583.13;5388525;26;20099;-71
2024/04/17 05:31:50;;;;;;;2.67;0.10;;;;;;;5.11;97.39;99578.69;5388978;26;20529;-70
2024/04/17 05:34:16;;;;;;;0.43;0.08;;;;;;;5.19;96.47;99573.69;5386258;26;20011;-69
2024/04/17 05:36:41;;;;;;;0.93;0.10;;;;;;;5.25;95.42;99588.63;5388098;26;20022;-70
2024/04/17 05:39:07;;;;;;;1.75;0.00;;;;;;;5.37;96.08;99584.19;5386308;26;20024;-70
2024/04/17 05:41:32;;;;;;;1.05;0.05;;;;;;;5.41;95.39;99595.06;5386159;26;22106;-71
2024/04/17 05:43:58;;;;;;;4.47;0.10;;;;;;;5.37;93.71;99593.69;5394211;26;20024;-69
2024/04/17 05:46:25;;;;;;;1.80;0.20;;;;;;;5.40;93.73;99594.25;5408892;26;20018;-70
2024/04/17 05:48:54;;;;;;;0.10;0.00;;;;;;;5.43;93.81;99586.25;5396940;26;20022;-70
2024/04/17 05:51:19;;;;;;;0.17;0.00;;;;;;;5.52;92.18;99588.03;5408252;26;20057;-70
2024/04/17 05:53:45;;;;;;;4.55;0.10;;;;;;;5.67;92.69;99589.25;5411371;26;20023;-69
2024/04/17 05:56:10;;;;;;;2.13;0.00;;;;;;;5.78;93.29;99588.31;5403644;26;20308;-69
2024/04/17 05:58:36;;;;;;;0.22;0.00;;;;;;;5.92;91.47;99580.19;5412299;26;20340;-70
2024/04/17 06:01:01;;;;;;;0.55;0.00;;;;;;;6.02;89.28;99584.53;5426943;26;20071;-70
2024/04/17 06:03:28;;;;;;;4.20;0.00;;;;;;;6.13;89.00;99581.81;5402079;26;20019;-70
2024/04/17 06:05:53;;;;;;;0.30;0.00;;;;;;;6.27;89.93;99576.22;5403157;26;20019;-70
2024/04/17 06:08:19;;;;;;;3.08;0.10;;;;;;;6.36;91.12;99579.75;5400370;26;20528;-69
2024/04/17 06:10:44;;;;;;;0.43;0.20;;;;;;;6.45;91.27;99584.91;5407110;26;20054;-69
2024/04/17 06:13:10;;;;;;;2.83;0.10;;;;;;;6.58;91.62;99571.66;5406659;26;20011;-69
2024/04/17 06:15:35;;;;;;;1.55;0.00;;;;;;;6.68;90.64;99571.59;5405449;26;20081;-68
2024/04/17 06:18:02;;;;;;;0.30;0.00;;;;;;;6.72;89.13;99573.78;5395785;26;20020;-69
2024/04/17 06:20:28;;;;;;;0.40;0.03;;;;;;;6.88;89.73;99568.81;5399609;26;20015;-69
2024/04/17 06:22:53;;;;;;;0.22;0.00;;;;;;;7.21;91.58;99564.00;5412813;26;20038;-68
2024/04/17 06:25:19;;;;;;;3.17;0.13;;;;;;;7.26;86.51;99569.59;5412416;26;20030;-68
2024/04/17 06:27:44;;;;;;;0.80;0.05;;;;;;;7.25;84.72;99571.34;5412982;26;20018;-69
2024/04/17 06:30:10;;;;;;;1.00;0.10;;;;;;;7.35;84.42;99567.91;5405212;26;20016;-68
2024/04/17 06:32:35;;;;;;;2.83;0.00;;;;;;;7.52;85.19;99573.13;5409847;26;20015;-68
2024/04/17 06:35:01;;;;;;;0.20;0.10;;;;;;;7.70;82.79;99575.72;5393625;26;20077;-68
2024/04/17 06:37:26;;;;;;;0.17;0.00;;;;;;;7.82;85.21;99576.31;5396806;26;20015;-69
2024/04/17 06:39:52;;;;;;;0.20;0.10;;;;;;;7.96;84.76;99576.59;5402059;26;20391;-68
2024/04/17 06:42:17;;;;;;;2.38;0.20;;;;;;;8.06;83.31;99570.50;5399645;26;20007;-68
2024/04/17 06:44:43;;;;;;;0.38;0.00;;;;;;;8.15;82.12;99573.00;5413024;26;20022;-72
2024/04/17 06:47:08;;;;;;;0.77;0.03;;;;;;;8.15;82.54;99567.00;5398875;26;20003;-68
2024/04/17 06:49:34;;;;;;;2.85;0.10;;;;;;;8.25;81.49;99565.13;5410772;26;20516;-67
2024/04/17 06:51:59;;;;;;;0.45;0.00;;;;;;;8.41;80.37;99560.09;5416375;26;20451;-67
2024/04/17 06:54:24;;;;;;;0.50;0.00;;;;;;;8.51;80.00;99570.34;5406145;26;20019;-68
2024/04/17 06:56:50;;;;;;;0.25;0.00;;;;;;;8.57;83.63;99561.97;5392125;26;20076;-68
2024/04/17 06:59:15;;;;;;;2.63;0.00;;;;;;;8.75;81.98;99562.72;5397040;26;20008;-68
2024/04/17 07:01:41;;;;;;;4.68;0.00;;;;;;;8.85;83.27;99563.44;5401496;26;20024;-68
2024/04/17 07:04:06;;;;;;;0.13;0.00;;;;;;;9.02;83.00;99564.28;5414220;26;20328;-67
2024/04/17 07:06:32;;;;;;;0.20;0.00;;;;;;;9.11;82.24;99552.16;5413017;26;20433;-68
2024/04/17 07:08:57;;;;;;;0.47;0.00;;;;;;;9.20;82.52;99546.81;5412464;26;20011;-67
2024/04/17 07:11:23;;;;;;;0.10;0.00;;;;;;;9.36;83.21;99550.44;5413046;26;20347;-66
2024/04/17 07:13:48;;;;;;;1.17;0.00;;;;;;;9.37;82.39;99547.69;5415525;26;20017;-67
2024/04/17 07:16:14;;;;;;;4.32;0.00;;;;;;;9.46;83.04;99545.91;5404018;26;20411;-67
2024/04/17 07:18:39;;;;;;;0.65;0.00;;;;;;;9.60;79.75;99551.28;5415248;26;20008;-67
2024/04/17 07:21:05;;;;;;;0.43;0.00;;;;;;;9.50;79.48;99553.22;5401750;26;20008;-66
2024/04/17 07:23:31;;;;;;;0.20;0.00;;;;;;;9.59;78.17;99549.66;5409466;26;20019;-68
2024/04/17 07:25:57;;;;;;;13.07;0.20;;;;;;;9.60;77.21;99551.28;5411076;26;20003;-67
2024/04/17 07:28:22;;;;;;;1.08;0.00;;;;;;;9.70;78.57;99558.13;5416958;26;20015;-66
2024/04/17 07:30:48;;;;;;;0.35;0.00;;;;;;;9.67;76.07;99550.66;5407478;26;20388;-67
2024/04/17 07:33:13;;;;;;;1.27;0.05;;;;;;;9.83;75.95;99553.28;5409212;26;20344;-66
2024/04/17 07:35:39;;;;;;;0.20;0.00;;;;;;;10.03;76.10;99554.56;5416324;26;20447;-66
2024/04/17 07:38:05;;;;;;;0.32;0.00;;;;;;;10.01;77.99;99550.50;5406106;26;20340;-67
2024/04/17 07:40:30;;;;;;;1.45;0.00;;;;;;;10.15;76.22;99548.06;5414165;26;20003;-66
2024/04/17 07:42:56;;;;;;;1.00;0.00;;;;;;;10.27;77.22;99551.19;5412348;26;20027;-66
2024/04/17 07:45:21;;;;;;;1.35;0.00;;;;;;;10.38;78.58;99555.25;5413691;26;20008;-67
2024/04/17 07:47:47;;;;;;;0.00;0.00;;;;;;;10.58;77.60;99548.66;5414570;26;20011;-66
2024/04/17 07:50:13;;;;;;;0.45;0.00;;;;;;;10.85;78.46;99545.69;5412190;26;20354;-66
2024/04/17 07:52:38;;;;;;;2.35;0.10;;;;;;;10.96;76.74;99547.88;5402292;26;20023;-66
2024/04/17 07:55:04;;;;;;;0.30;0.10;;;;;;;11.11;78.33;99539.38;5413558;26;20499;-67
2024/04/17 07:57:29;;;;;;;2.70;0.10;;;;;;;11.32;78.83;99539.59;5404986;26;20011;-66
2024/04/17 07:59:55;;;;;;;2.38;0.10;;;;;;;11.25;73.47;99547.28;5411922;26;20568;-66
2024/04/17 08:02:20;;;;;;;0.15;0.00;;;;;;;11.29;74.34;99534.72;5409806;26;20202;-66
2024/04/17 08:04:46;;;;;;;0.10;0.00;;;;;;;11.24;73.51;99543.06;5412458;26;20019;-67
2024/04/17 08:07:15;;;;;;;0.35;0.00;;;;;;;11.43;78.77;99539.19;5401890;26;20008;-71
2024/04/17 08:09:41;;;;;;;0.25;0.00;;;;;;;11.35;78.90;99541.00;5414686;26;20022;-68
2024/04/17 08:12:07;;;;;;;0.43;0.00;;;;;;;11.43;80.20;99539.19;5410133;26;20004;-68
2024/04/17 08:14:32;;;;;;;3.70;0.08;;;;;;;11.70;78.71;99539.66;5414342;26;20007;-68
2024/04/17 08:16:58;;;;;;;0.25;0.00;;;;;;;11.79;74.92;99541.28;5404309;26;20022;-67
2024/04/17 08:19:23;;;;;;;0.10;0.00;;;;;;;12.02;76.20;99538.63;5407374;26;20359;-68
2024/04/17 08:21:49;;;;;;;0.20;0.00;;;;;;;12.00;74.46;99535.38;5405666;26;20003;-68
2024/04/17 08:24:15;;;;;;;2.45;0.10;;;;;;;12.21;77.46;99530.31;5410810;26;20007;-68
2024/04/17 08:26:41;;;;;;;0.63;0.10;;;;;;;12.49;77.20;99527.88;5413102;26;20401;-68
2024/04/17 08:29:06;;;;;;;0.25;0.00;;;;;;;12.46;71.93;99525.63;5413455;26;20080;-67
2024/04/17 08:31:32;;;;;;;0.20;0.00;;;;;;;12.53;73.58;99526.53;5411223;26;20118;-69
2024/04/17 08:33:57;;;;;;;0.95;0.00;;;;;;;12.66;76.83;99529.34;5402838;26;20196;-69
2024/04/17 08:36:23;;;;;;;1.65;0.10;;;;;;;12.83;75.56;99532.56;5403187;26;20020;-69
2024/04/17 08:38:48;;;;;;;0.60;0.00;;;;;;;12.77;72.53;99536.72;5414660;26;20054;-67
2024/04/17 08:41:13;;;;;;;0.60;0.03;;;;;;;12.79;73.29;99531.31;5411983;26;20016;-69
2024/04/17 08:43:41;;;;;;;0.52;0.05;;;;;;;12.61;70.43;99534.28;5399048;26;20012;-69
2024/04/17 08:46:10;;;;;;;5.00;0.10;;;;;;;12.61;75.58;99535.09;5394567;26;20016;-69
2024/04/17 08:48:38;;;;;;;0.75;0.00;;;;;;;12.51;74.11;99531.13;5413997;26;20004;-68
2024/04/17 08:51:05;;;;;;;1.65;0.00;;;;;;;12.49;75.91;99540.94;5413021;26;20352;-68
2024/04/17 08:53:33;;;;;;;1.05;0.10;;;;;;;12.48;78.06;99544.56;5409385;26;20007;-68
2024/04/17 08:55:58;;;;;;;0.10;0.00;;;;;;;12.48;76.73;99537.53;5425311;26;20553;-68
2024/04/17 08:58:23;;;;;;;1.08;0.00;;;;;;;12.41;76.21;99539.22;5412866;26;20004;-68
2024/04/17 09:00:50;;;;;;;0.55;0.00;;;;;;;12.44;76.37;99545.91;5413825;26;20026;-68
2024/04/17 09:03:23;;;;;;;0.10;0.00;;;;;;;12.46;73.77;99546.53;5425751;26;20015;-68
2024/04/17 09:05:49;;;;;;;0.03;0.00;;;;;;;12.60;75.86;99537.91;5413309;26;20019;-68
2024/04/17 09:08:19;;;;;;;9.82;0.00;;;;;;;12.77;75.95;99536.72;5411389;26;20015;-67
2024/04/17 09:10:45;;;;;;;0.32;0.00;;;;;;;12.96;75.99;99537.97;5413878;26;20054;-68
2024/04/17 09:13:12;;;;;;;0.40;0.00;;;;;;;12.95;75.94;99539.78;5412751;26;20412;-68
2024/04/17 09:15:38;;;;;;;1.55;0.00;;;;;;;13.03;75.80;99538.88;5400849;26;20008;-67
2024/04/17 09:18:10;;;;;;;0.00;0.00;;;;;;;13.12;74.96;99542.19;5414292;26;20023;-67
2024/04/17 09:20:36;;;;;;;0.60;0.00;;;;;;;12.99;75.53;99540.22;5411284;26;20449;-66
2024/04/17 09:23:02;;;;;;;0.40;0.00;;;;;;;12.89;69.67;99540.50;5413070;26;20023;-67
2024/04/17 09:25:27;;;;;;;0.00;0.00;;;;;;;12.77;71.32;99538.50;5412248;26;20451;-67
2024/04/17 09:27:53;;;;;;;0.00;0.00;;;;;;;12.87;73.45;99534.63;5412902;26;20018;-67
2024/04/17 09:30:18;;;;;;;0.25;0.00;;;;;;;12.89;71.14;99527.41;5410415;26;20013;-67
2024/04/17 09:32:44;;;;;;;0.30;0.00;;;;;;;12.84;67.24;99534.19;5411667;26;20109;-67
2024/04/17 09:35:11;;;;;;;0.15;0.00;;;;;;;12.86;71.07;99535.63;5390951;26;20004;-68
2024/04/17 09:37:37;;;;;;;0.28;0.00;;;;;;;12.97;71.52;99536.97;5412330;26;20015;-67
2024/04/17 09:40:07;;;;;;;0.00;0.00;;;;;;;12.84;69.55;99527.16;5414060;26;20332;-66
2024/04/17 09:42:35;;;;;;;1.88;0.00;;;;;;;13.02;72.92;99537.25;5412756;26;20014;-67
2024/04/17 09:45:01;;;;;;;0.05;0.00;;;;;;;13.32;73.53;99537.19;5411356;26;20007;-67
2024/04/17 09:47:31;;;;;;;2.20;0.47;;;;;;;13.55;73.01;99541.28;5410502;26;20008;-67
2024/04/17 09:49:59;;;;;;;0.60;0.00;;;;;;;13.67;73.66;99541.63;5413956;26;20008;-67
2024/04/17 09:52:26;;;;;;;0.47;0.00;;;;;;;13.66;72.97;99540.00;5409743;26;20139;-66
2024/04/17 09:54:52;;;;;;;0.45;0.00;;;;;;;13.67;73.01;99541.63;5411048;26;20329;-66
2024/04/17 09:57:19;;;;;;;0.00;0.00;;;;;;;13.63;72.55;99544.78;5410286;26;20026;-67
2024/04/17 09:59:46;;;;;;;0.00;0.00;;;;;;;13.43;70.78;99540.16;5401906;26;20058;-67
2024/04/17 10:02:15;;;;;;;0.10;0.00;;;;;;;13.39;72.57;99538.09;5401190;26;20062;-67
2024/04/17 10:04:41;;;;;;;0.57;0.00;;;;;;;13.37;74.21;99540.88;5411911;26;20498;-68
2024/04/17 10:07:11;;;;;;;0.00;0.00;;;;;;;13.16;71.54;99538.25;5413090;26;20015;-67
2024/04/17 10:09:37;;;;;;;0.22;0.00;;;;;;;13.16;73.75;99535.63;5406497;26;20103;-66
2024/04/17 10:12:04;;;;;;;0.00;0.00;;;;;;;13.21;74.05;99534.09;5394678;26;20036;-67
2024/04/17 10:14:30;;;;;;;0.00;0.00;;;;;;;13.21;74.55;99536.72;5394300;26;20792;-67
2024/04/17 10:16:56;;;;;;;0.20;0.00;;;;;;;13.24;73.70;99536.31;5407862;26;20036;-67
2024/04/17 10:19:22;;;;;;;0.00;0.00;;;;;;;13.27;74.30;99540.38;5402457;26;20127;-68
2024/04/17 10:21:47;;;;;;;0.90;0.00;;;;;;;13.24;74.07;99532.88;5411512;26;20081;-68
2024/04/17 10:24:13;;;;;;;0.10;0.00;;;;;;;13.27;74.43;99535.13;5401120;26;20012;-67
2024/04/17 10:26:41;;;;;;;0.10;0.00;;;;;;;13.28;74.30;99534.13;5409538;26;20007;-67
2024/04/17 10:29:17;;;;;;;0.35;0.00;;;;;;;13.14;71.17;99529.75;5410123;26;20011;-67
2024/04/17 10:32:13;;;;;;;0.30;0.00;;;;;;;12.96;66.35;99528.31;5407520;26;20044;-67
2024/04/17 10:34:44;;;;;;;0.10;0.00;;;;;;;13.07;69.31;99526.22;5412570;26;20011;-68
2024/04/17 10:37:10;;;;;;;0.03;0.00;;;;;;;13.17;72.47;99529.41;5415689;26;20003;-67
2024/04/17 10:39:37;;;;;;;0.13;0.00;;;;;;;13.26;73.02;99528.28;5413085;26;20035;-67
2024/04/17 10:42:04;;;;;;;0.00;0.00;;;;;;;13.34;72.43;99522.94;5414901;26;20011;-67
2024/04/17 10:44:43;;;;;;;0.15;0.00;;;;;;;13.43;72.10;99534.91;5412070;26;20011;-66
2024/04/17 10:47:21;;;;;;;1.25;0.00;;;;;;;13.43;70.78;99526.25;5413076;26;20008;-66
2024/04/17 10:49:55;;;;;;;0.00;0.00;;;;;;;13.48;69.47;99527.31;5414038;26;20011;-67
2024/04/17 10:52:21;;;;;;;0.40;0.03;;;;;;;13.46;70.47;99524.09;5405393;26;20070;-67
2024/04/17 10:54:47;;;;;;;0.00;0.00;;;;;;;13.49;72.53;99528.13;5420701;26;20015;-66
2024/04/17 10:57:15;;;;;;;0.57;0.00;;;;;;;13.47;71.86;99530.94;5411255;26;20011;-67
2024/04/17 10:59:48;;;;;;;0.00;0.00;;;;;;;13.63;72.15;99529.09;5410072;26;20027;-67
2024/04/17 11:02:14;;;;;;;0.00;0.00;;;;;;;13.77;71.35;99520.34;5407223;26;20073;-67
2024/04/17 11:04:39;;;;;;;0.00;0.00;;;;;;;13.80;71.77;99526.00;5407058;26;20007;-67
2024/04/17 11:07:09;;;;;;;0.00;0.00;;;;;;;13.81;72.27;99532.06;5412791;26;20081;-67
2024/04/17 11:09:34;;;;;;;1.55;0.00;;;;;;;13.79;71.65;99528.81;5406305;26;20026;-67
2024/04/17 11:11:59;;;;;;;0.00;0.00;;;;;;;13.63;71.46;99531.69;5411572;26;20011;-68
2024/04/17 11:14:25;;;;;;;0.00;0.00;;;;;;;13.65;72.97;99527.91;5409736;26;20516;-67
2024/04/17 11:16:50;;;;;;;0.10;0.00;;;;;;;13.63;71.35;99523.84;5411504;26;20027;-67
2024/04/17 11:19:17;;;;;;;0.10;0.00;;;;;;;13.44;71.89;99520.84;5411254;26;20417;-68
2024/04/17 11:21:45;;;;;;;0.47;0.00;;;;;;;13.43;73.24;99524.44;5409503;26;20356;-68
2024/04/17 11:24:17;;;;;;;0.03;0.00;;;;;;;13.48;71.50;99523.91;5410261;26;20008;-67
2024/04/17 11:26:44;;;;;;;0.80;0.00;;;;;;;13.42;69.52;99522.03;5398245;26;20018;-67
2024/04/17 11:29:15;;;;;;;0.00;0.00;;;;;;;13.38;69.57;99518.16;5411619;26;20007;-73